Weather at Finley Hospital Heliport

Public forecast

Using degrees Fahrenheit for public forecast. Weather courtesy of forecast.io.

Closest aviation weather report (METAR) to Finley Hospital Heliport

Closest report is Dubuque Regional Airport, 5.7 nm (10.6 km) S. Retrieved 2021/06/23 00:53 UTC (44 minutes ago):

KDBQ 230053Z 20012KT 10SM CLR 19/14 A2989 RMK AO2 SLP120 T01890144

Closest aviation forecast (TAF) to Finley Hospital Heliport

Closest forecast is Dubuque Regional Airport, 5.7 nm (10.6 km) S. Retrieved 2021-06-23 00:30 UTC (1 hour ago):

TAF KDBQ 222328Z 2300/2324 19011G18KT P6SM SCT100 BKN250 FM230100 17008KT 6SM -SHRA VCTS BKN070CB FM230230 17009KT P6SM BKN100 FM230500 19011KT P6SM VCTS BKN050CB FM231000 18010KT P6SM BKN070 FM231700 20014G22KT P6SM SCT040